createdAt,value
2019-05-19T00:02:24.974Z,20.97
2019-05-19T00:04:55.300Z,22.48
2019-05-19T00:07:25.668Z,22.32
2019-05-19T00:09:57.841Z,21.77
2019-05-19T00:12:28.398Z,22.65
2019-05-19T00:14:58.828Z,20.92
2019-05-19T00:17:29.584Z,20.60
2019-05-19T00:20:00.516Z,22.95
2019-05-19T00:22:30.810Z,22.67
2019-05-19T00:25:01.573Z,23.20
2019-05-19T00:27:31.922Z,21.35
2019-05-19T00:30:04.559Z,22.82
2019-05-19T00:32:34.957Z,24.07
2019-05-19T00:35:07.357Z,22.93
2019-05-19T00:37:38.699Z,25.02
2019-05-19T00:40:10.204Z,24.30
2019-05-19T00:42:41.080Z,23.85
2019-05-19T00:45:12.999Z,23.07
2019-05-19T00:47:43.383Z,23.50
2019-05-19T00:50:14.530Z,23.47
2019-05-19T00:52:44.769Z,25.20
2019-05-19T00:55:15.467Z,22.90
2019-05-19T00:57:46.499Z,23.05
2019-05-19T01:00:17.400Z,23.00
2019-05-19T01:02:47.725Z,24.50
2019-05-19T01:05:20.746Z,24.15
2019-05-19T01:07:50.639Z,23.40
2019-05-19T01:10:21.262Z,21.65
2019-05-19T01:12:51.816Z,23.50
2019-05-19T01:15:23.311Z,25.23
2019-05-19T01:17:53.695Z,25.12
2019-05-19T01:20:24.746Z,24.90
2019-05-19T01:22:55.078Z,24.87
2019-05-19T01:25:25.545Z,23.35
2019-05-19T01:27:55.908Z,24.18
2019-05-19T01:30:28.785Z,24.47
2019-05-19T01:32:59.439Z,25.25
2019-05-19T01:35:30.954Z,24.23
2019-05-19T01:38:01.326Z,25.23
2019-05-19T01:40:31.651Z,24.23
2019-05-19T01:43:03.272Z,24.80
2019-05-19T01:45:33.605Z,24.77
2019-05-19T01:48:03.971Z,24.32
2019-05-19T01:50:34.802Z,23.50
2019-05-19T01:53:06.471Z,24.40
2019-05-19T01:55:36.730Z,23.80
2019-05-19T01:58:07.143Z,23.10
2019-05-19T02:00:37.468Z,26.07
2019-05-19T02:03:08.691Z,24.72
2019-05-19T02:05:39.039Z,25.68
2019-05-19T02:08:09.777Z,24.70
2019-05-19T02:10:41.120Z,23.95
2019-05-19T02:13:12.384Z,24.32
2019-05-19T02:15:43.092Z,25.15
2019-05-19T02:18:14.713Z,25.88
2019-05-19T02:20:46.141Z,24.45
2019-05-19T02:23:17.030Z,23.95
2019-05-19T02:25:48.956Z,23.75
2019-05-19T02:28:20.859Z,24.67
2019-05-19T02:30:51.337Z,26.15
2019-05-19T02:33:22.107Z,24.65
2019-05-19T02:35:52.443Z,26.23
2019-05-19T02:38:24.494Z,26.05
2019-05-19T02:40:57.201Z,25.35
2019-05-19T02:43:30.977Z,25.60
2019-05-19T02:46:02.331Z,23.75
2019-05-19T02:48:33.873Z,25.35
2019-05-19T02:51:06.410Z,26.62
2019-05-19T02:53:38.630Z,24.98
2019-05-19T02:56:09.765Z,25.45
2019-05-19T02:58:42.231Z,24.90
2019-05-19T03:01:12.664Z,25.57
2019-05-19T03:03:45.543Z,25.23
2019-05-19T03:06:16.231Z,25.90
2019-05-19T03:08:47.723Z,27.65
2019-05-19T03:11:17.997Z,26.65
2019-05-19T03:13:50.006Z,25.92
2019-05-19T03:16:20.255Z,25.65
2019-05-19T03:18:51.512Z,25.23
2019-05-19T03:21:22.199Z,24.85
2019-05-19T03:23:53.850Z,25.32
2019-05-19T03:26:24.166Z,25.08
2019-05-19T03:28:55.033Z,26.52
2019-05-19T03:31:26.941Z,25.68
2019-05-19T03:33:59.994Z,24.10
2019-05-19T03:36:30.317Z,27.77
2019-05-19T03:39:02.654Z,24.57
2019-05-19T03:41:32.975Z,26.05
2019-05-19T03:44:05.872Z,27.55
2019-05-19T03:46:36.184Z,26.75
2019-05-19T03:49:06.542Z,26.35
2019-05-19T03:51:36.993Z,26.33
2019-05-19T03:54:10.323Z,25.95
2019-05-19T03:56:40.592Z,24.37
2019-05-19T03:59:11.705Z,22.98
2019-05-19T04:01:42.029Z,24.77
2019-05-19T04:04:13.053Z,25.57
2019-05-19T04:06:43.538Z,26.12
2019-05-19T04:09:17.148Z,25.40
2019-05-19T04:11:46.196Z,24.40
2019-05-19T04:14:16.993Z,26.45
2019-05-19T04:16:49.685Z,25.62
2019-05-19T04:19:20.011Z,24.65
2019-05-19T04:21:51.608Z,24.50
2019-05-19T04:24:22.385Z,26.40
2019-05-19T04:26:52.684Z,25.30
2019-05-19T04:29:23.208Z,25.02
2019-05-19T04:31:53.577Z,25.92
2019-05-19T04:34:24.020Z,25.25
2019-05-19T04:36:57.684Z,23.57
2019-05-19T04:39:30.627Z,24.12
2019-05-19T04:42:01.207Z,23.35
2019-05-19T04:44:33.389Z,23.07
2019-05-19T04:47:04.938Z,21.23
2019-05-19T04:49:35.757Z,23.57
2019-05-19T04:52:07.457Z,20.97
2019-05-19T04:54:38.178Z,21.75
2019-05-19T04:57:08.552Z,18.90
2019-05-19T04:59:39.983Z,21.07
2019-05-19T05:02:10.424Z,21.00
2019-05-19T05:04:45.515Z,22.62
2019-05-19T05:07:15.882Z,22.42
2019-05-19T05:09:46.583Z,25.85
2019-05-19T05:12:16.947Z,21.27
2019-05-19T05:14:47.319Z,26.37
2019-05-19T05:17:19.013Z,26.65
2019-05-19T05:19:49.431Z,27.35
2019-05-19T05:22:22.135Z,25.00
2019-05-19T05:24:52.859Z,26.33
2019-05-19T05:27:23.285Z,26.50
2019-05-19T05:29:53.854Z,23.62
2019-05-19T05:32:24.187Z,25.62
2019-05-19T05:34:55.082Z,21.12
2019-05-19T05:37:25.806Z,21.07
2019-05-19T05:39:56.953Z,25.32
2019-05-19T05:42:31.566Z,24.02
2019-05-19T05:45:02.110Z,26.15
2019-05-19T05:47:32.855Z,26.48
2019-05-19T05:50:03.967Z,25.80
2019-05-19T05:52:38.562Z,25.97
2019-05-19T05:55:08.271Z,22.60
2019-05-19T05:57:39.038Z,24.43
2019-05-19T06:00:11.172Z,27.13
2019-05-19T06:02:41.904Z,26.12
2019-05-19T06:05:12.477Z,22.70
2019-05-19T06:07:42.817Z,26.68
2019-05-19T06:10:14.132Z,24.67
2019-05-19T06:12:46.111Z,24.55
2019-05-19T06:15:18.269Z,23.60
2019-05-19T06:17:51.264Z,25.92
2019-05-19T06:20:21.621Z,27.13
2019-05-19T06:22:56.621Z,24.47
2019-05-19T06:25:25.160Z,24.27
2019-05-19T06:27:55.413Z,23.65
2019-05-19T06:30:25.773Z,25.80
2019-05-19T06:32:57.889Z,22.35
2019-05-19T06:35:29.092Z,25.27
2019-05-19T06:38:00.476Z,26.42
2019-05-19T06:40:31.482Z,24.32
2019-05-19T06:43:02.109Z,28.52
2019-05-19T06:45:32.591Z,26.05
2019-05-19T06:48:03.098Z,25.02
2019-05-19T06:50:33.658Z,28.92
2019-05-19T06:53:13.353Z,27.05
2019-05-19T06:55:36.873Z,27.82
2019-05-19T06:58:07.225Z,27.85
2019-05-19T07:00:37.575Z,27.10
2019-05-19T07:03:08.496Z,26.73
2019-05-19T07:05:39.216Z,27.85
2019-05-19T07:08:09.592Z,28.30
2019-05-19T07:10:40.424Z,25.05
2019-05-19T07:13:12.266Z,26.20
2019-05-19T07:15:43.006Z,27.15
2019-05-19T07:18:13.350Z,26.10
2019-05-19T07:20:43.700Z,25.72
2019-05-19T07:23:27.392Z,25.32
2019-05-19T07:25:46.903Z,24.20
2019-05-19T07:28:17.196Z,25.55
2019-05-19T07:30:48.039Z,24.43
2019-05-19T07:33:18.364Z,24.00
2019-05-19T07:35:48.721Z,25.57
2019-05-19T07:38:21.611Z,23.50
2019-05-19T07:40:52.494Z,25.02
2019-05-19T07:43:23.306Z,21.57
2019-05-19T07:45:54.776Z,22.30
2019-05-19T07:48:26.761Z,26.12
2019-05-19T07:50:57.675Z,24.25
2019-05-19T07:53:41.914Z,23.65
2019-05-19T07:56:00.742Z,21.48
2019-05-19T07:58:31.061Z,22.37
2019-05-19T08:01:01.924Z,22.00
2019-05-19T08:03:32.750Z,20.20
2019-05-19T08:06:06.018Z,19.10
2019-05-19T08:08:36.582Z,17.57
2019-05-19T08:11:07.362Z,18.82
2019-05-19T08:13:37.917Z,19.32
2019-05-19T08:16:10.924Z,18.65
2019-05-19T08:18:41.424Z,19.83
2019-05-19T08:21:11.971Z,16.95
2019-05-19T08:23:42.284Z,18.00
2019-05-19T08:26:13.399Z,17.92
2019-05-19T08:28:43.747Z,16.73
2019-05-19T08:31:15.721Z,16.50
2019-05-19T08:33:46.157Z,16.20
2019-05-19T08:36:18.164Z,18.05
2019-05-19T08:38:48.911Z,17.52
2019-05-19T08:41:21.828Z,16.90
2019-05-19T08:43:53.485Z,16.17
2019-05-19T08:46:25.047Z,15.10
2019-05-19T08:48:58.328Z,13.13
2019-05-19T08:51:28.148Z,14.98
2019-05-19T08:53:58.486Z,14.13
2019-05-19T08:56:31.381Z,13.28
2019-05-19T08:59:01.716Z,14.23
2019-05-19T09:01:32.079Z,14.55
2019-05-19T09:04:02.520Z,14.43
2019-05-19T09:06:33.148Z,15.32
2019-05-19T09:09:04.961Z,13.78
2019-05-19T09:11:37.898Z,13.03
2019-05-19T09:14:08.231Z,11.83
2019-05-19T09:16:43.034Z,11.48
2019-05-19T09:19:13.355Z,11.97
2019-05-19T09:21:44.129Z,11.20
2019-05-19T09:24:29.298Z,12.05
2019-05-19T09:26:46.910Z,11.05
2019-05-19T09:29:17.312Z,11.78
2019-05-19T09:31:48.048Z,11.33
2019-05-19T09:34:19.424Z,11.35
2019-05-19T09:36:50.133Z,12.20
2019-05-19T09:39:21.705Z,12.15
2019-05-19T09:41:52.899Z,12.63
2019-05-19T09:44:23.217Z,13.78
2019-05-19T09:46:55.524Z,15.65
2019-05-19T09:49:32.380Z,14.58
2019-05-19T09:52:05.998Z,14.47
2019-05-19T09:54:45.450Z,13.15
2019-05-19T09:57:11.347Z,12.43
2019-05-19T09:59:41.713Z,13.35
2019-05-19T10:02:14.724Z,12.63
2019-05-19T10:04:45.481Z,12.45
2019-05-19T10:07:16.728Z,12.00
2019-05-19T10:10:05.677Z,12.37
2019-05-19T10:12:36.226Z,11.85
2019-05-19T10:15:07.355Z,9.88
2019-05-19T10:17:40.165Z,11.03
2019-05-19T10:20:11.726Z,12.50
2019-05-19T10:22:44.891Z,10.23
2019-05-19T10:25:22.112Z,10.25
2019-05-19T10:27:48.459Z,9.88
2019-05-19T10:30:19.196Z,9.58
2019-05-19T10:32:50.005Z,12.23
2019-05-19T10:35:20.325Z,12.45
2019-05-19T10:37:52.210Z,10.72
2019-05-19T10:40:22.815Z,10.53
2019-05-19T10:42:54.250Z,9.30
2019-05-19T10:45:24.835Z,10.80
2019-05-19T10:47:57.713Z,10.08
2019-05-19T10:50:28.034Z,10.20
2019-05-19T10:52:58.896Z,8.98
2019-05-19T10:55:36.661Z,9.83
2019-05-19T10:58:02.747Z,9.98
2019-05-19T11:00:33.869Z,10.32
2019-05-19T11:03:04.382Z,11.33
2019-05-19T11:05:34.813Z,9.95
2019-05-19T11:08:08.697Z,9.58
2019-05-19T11:13:09.362Z,9.53
2019-05-19T11:15:39.676Z,10.25
2019-05-19T11:18:10.327Z,10.10
2019-05-19T11:20:40.753Z,9.55
2019-05-19T11:23:11.163Z,8.85
2019-05-19T11:25:51.181Z,10.25
2019-05-19T11:28:15.135Z,9.30
2019-05-19T11:30:45.558Z,8.68
2019-05-19T11:33:16.745Z,7.90
2019-05-19T11:35:47.085Z,8.25
2019-05-19T11:38:18.219Z,7.12
2019-05-19T11:40:48.636Z,7.22
2019-05-19T11:43:19.758Z,7.53
2019-05-19T11:45:50.080Z,7.30
2019-05-19T11:48:21.964Z,6.70
2019-05-19T11:50:52.669Z,7.47
2019-05-19T11:53:23.039Z,6.75
2019-05-19T11:56:05.765Z,6.53
2019-05-19T11:58:26.526Z,6.87
2019-05-19T12:00:56.917Z,6.53
2019-05-19T12:03:27.897Z,5.83
2019-05-19T12:05:58.318Z,7.03
2019-05-19T12:08:30.395Z,7.22
2019-05-19T12:11:00.802Z,8.43
2019-05-19T12:13:34.915Z,6.25
2019-05-19T12:16:05.146Z,5.75
2019-05-19T12:18:36.159Z,5.50
2019-05-19T12:21:06.684Z,6.55
2019-05-19T12:23:37.643Z,5.65
2019-05-19T12:26:22.234Z,5.67
2019-05-19T12:28:41.667Z,5.42
2019-05-19T12:31:12.481Z,5.58
2019-05-19T12:33:51.544Z,6.00
2019-05-19T12:36:15.263Z,6.37
2019-05-19T12:38:46.851Z,5.60
2019-05-19T12:41:17.182Z,6.62
2019-05-19T12:43:48.721Z,7.00
2019-05-19T12:46:19.438Z,6.30
2019-05-19T12:48:51.833Z,6.72
2019-05-19T12:51:22.152Z,6.65
2019-05-19T12:53:52.574Z,6.83
2019-05-19T12:56:37.213Z,7.42
2019-05-19T12:58:55.670Z,6.05
2019-05-19T13:01:26.205Z,6.92
2019-05-19T13:03:56.951Z,6.25
2019-05-19T13:06:28.757Z,6.55
2019-05-19T13:08:59.635Z,6.00
2019-05-19T13:11:29.953Z,6.40
2019-05-19T13:14:01.016Z,6.58
2019-05-19T13:16:31.342Z,5.87
2019-05-19T13:19:02.554Z,7.17
2019-05-19T13:21:32.866Z,6.40
2019-05-19T13:24:04.076Z,7.03
2019-05-19T13:26:34.482Z,6.37
2019-05-19T13:29:05.713Z,5.78
2019-05-19T13:31:36.127Z,6.50
2019-05-19T13:34:06.756Z,5.00
2019-05-19T13:36:40.160Z,5.85
2019-05-19T13:39:11.315Z,6.12
2019-05-19T13:41:41.680Z,6.33
2019-05-19T13:44:13.158Z,7.50
2019-05-19T13:46:43.590Z,6.15
2019-05-19T13:49:15.441Z,6.10
2019-05-19T13:51:45.758Z,7.12
2019-05-19T13:54:16.182Z,6.80
2019-05-19T13:56:46.878Z,7.62
2019-05-19T13:59:19.497Z,8.83
2019-05-19T14:01:49.820Z,7.37
2019-05-19T14:04:20.873Z,9.08
2019-05-19T14:06:51.697Z,8.68
2019-05-19T14:09:23.848Z,10.13
2019-05-19T14:11:54.187Z,8.08
2019-05-19T14:14:24.512Z,8.03
2019-05-19T14:16:54.879Z,7.95
2019-05-19T14:19:27.407Z,8.58
2019-05-19T14:21:58.171Z,8.53
2019-05-19T14:24:29.026Z,9.73
2019-05-19T14:26:59.261Z,9.65
2019-05-19T14:29:33.505Z,10.75
2019-05-19T14:32:03.945Z,9.30
2019-05-19T14:34:36.092Z,10.32
2019-05-19T14:37:07.561Z,10.48
2019-05-19T14:39:39.416Z,10.35
2019-05-19T14:42:11.553Z,10.70
2019-05-19T14:44:44.153Z,13.28
2019-05-19T14:47:14.572Z,10.60
2019-05-19T14:49:45.746Z,9.85
2019-05-19T14:52:16.751Z,10.13
2019-05-19T14:54:49.063Z,11.38
2019-05-19T14:57:19.416Z,10.63
2019-05-19T14:59:49.975Z,10.48
2019-05-19T15:02:20.405Z,11.08
2019-05-19T15:04:51.246Z,10.35
2019-05-19T15:07:23.300Z,10.85
2019-05-19T15:09:54.921Z,10.93
2019-05-19T15:12:25.248Z,10.82
2019-05-19T15:14:55.608Z,10.40
2019-05-19T15:17:26.644Z,8.73
2019-05-19T15:19:57.330Z,9.50
2019-05-19T15:22:28.703Z,9.85
2019-05-19T15:24:59.508Z,9.75
2019-05-19T15:27:30.784Z,10.88
2019-05-19T15:30:12.601Z,12.33
2019-05-19T15:32:34.517Z,12.65
2019-05-19T15:35:06.685Z,11.15
2019-05-19T15:37:38.036Z,12.65
2019-05-19T15:40:10.151Z,11.57
2019-05-19T15:42:40.828Z,12.25
2019-05-19T15:45:13.670Z,10.13
2019-05-19T15:47:43.989Z,10.68
2019-05-19T15:50:17.727Z,11.05
2019-05-19T15:52:48.063Z,10.78
2019-05-19T15:55:18.907Z,10.72
2019-05-19T15:57:49.259Z,10.95
2019-05-19T16:00:23.165Z,12.58
2019-05-19T16:02:54.544Z,11.75
2019-05-19T16:05:25.399Z,11.65
2019-05-19T16:07:56.236Z,13.22
2019-05-19T16:10:27.389Z,14.35
2019-05-19T16:12:57.718Z,13.85
2019-05-19T16:15:33.686Z,12.33
2019-05-19T16:18:04.258Z,12.82
2019-05-19T16:20:35.552Z,11.43
2019-05-19T16:23:05.892Z,11.00
2019-05-19T16:25:38.301Z,11.50
2019-05-19T16:28:08.785Z,11.65
2019-05-19T16:30:43.738Z,10.75
2019-05-19T16:33:14.095Z,9.85
2019-05-19T16:35:45.926Z,9.53
2019-05-19T16:38:16.181Z,11.70
2019-05-19T16:40:47.524Z,11.03
2019-05-19T16:43:17.877Z,12.53
2019-05-19T16:45:49.277Z,12.18
2019-05-19T16:48:19.588Z,12.90
2019-05-19T16:50:50.368Z,13.45
2019-05-19T16:53:21.110Z,12.58
2019-05-19T16:55:51.614Z,13.45
2019-05-19T16:58:22.145Z,12.28
2019-05-19T17:00:53.385Z,13.15
2019-05-19T17:03:23.692Z,14.30
2019-05-19T17:05:54.547Z,12.73
2019-05-19T17:08:24.949Z,13.20
2019-05-19T17:10:57.135Z,13.70
2019-05-19T17:13:27.561Z,14.30
2019-05-19T17:16:00.731Z,11.65
2019-05-19T17:18:32.810Z,11.80
2019-05-19T17:21:04.451Z,13.13
2019-05-19T17:23:35.126Z,13.00
2019-05-19T17:26:05.907Z,11.55
2019-05-19T17:28:36.161Z,13.40
2019-05-19T17:31:08.013Z,12.18
2019-05-19T17:33:38.336Z,12.82
2019-05-19T17:36:09.067Z,12.75
2019-05-19T17:38:39.499Z,13.18
2019-05-19T17:41:10.941Z,12.90
2019-05-19T17:43:41.275Z,12.73
2019-05-19T17:46:12.428Z,14.10
2019-05-19T17:48:42.825Z,13.68
2019-05-19T17:51:15.182Z,14.40
2019-05-19T17:53:46.781Z,14.87
2019-05-19T17:56:19.705Z,12.40
2019-05-19T17:58:52.891Z,12.13
2019-05-19T18:01:24.044Z,11.75
2019-05-19T18:03:54.798Z,11.88
2019-05-19T18:06:28.285Z,12.15
2019-05-19T18:08:57.641Z,10.82
2019-05-19T18:11:30.177Z,12.10
2019-05-19T18:14:00.538Z,13.10
2019-05-19T18:16:30.928Z,15.03
2019-05-19T18:19:01.602Z,16.77
2019-05-19T18:21:41.208Z,15.35
2019-05-19T18:24:13.540Z,17.80
2019-05-19T18:26:45.115Z,17.02
2019-05-19T18:29:15.442Z,18.02
2019-05-19T18:31:46.790Z,18.90
2019-05-19T18:34:19.994Z,17.37
2019-05-19T18:36:51.103Z,17.35
2019-05-19T18:39:21.445Z,18.87
2019-05-19T18:41:52.431Z,18.37
2019-05-19T18:44:22.759Z,17.85
2019-05-19T18:46:53.537Z,16.32
2019-05-19T18:49:23.920Z,18.40
2019-05-19T18:51:55.478Z,18.12
2019-05-19T18:54:25.852Z,17.65
2019-05-19T18:56:57.467Z,17.17
2019-05-19T18:59:28.232Z,17.35
2019-05-19T19:02:01.025Z,18.95
2019-05-19T19:04:31.354Z,19.17
2019-05-19T19:07:01.725Z,17.37
2019-05-19T19:09:32.703Z,17.48
2019-05-19T19:12:03.245Z,18.30
2019-05-19T19:14:34.430Z,16.82
2019-05-19T19:17:05.317Z,18.30
2019-05-19T19:19:36.252Z,16.15
2019-05-19T19:22:07.990Z,16.42
2019-05-19T19:24:39.718Z,16.45
2019-05-19T19:27:10.148Z,17.25
2019-05-19T19:29:41.413Z,15.18
2019-05-19T19:32:11.855Z,16.25
2019-05-19T19:34:42.258Z,16.45
2019-05-19T19:37:12.542Z,15.75
2019-05-19T19:39:43.150Z,14.78
2019-05-19T19:42:13.707Z,18.02
2019-05-19T19:44:44.576Z,15.78
2019-05-19T19:47:15.062Z,17.02
2019-05-19T19:49:46.035Z,16.57
2019-05-19T19:52:18.128Z,16.30
2019-05-19T19:54:48.427Z,15.00
2019-05-19T19:57:19.053Z,14.33
2019-05-19T19:59:50.615Z,15.03
2019-05-19T20:02:20.912Z,16.23
2019-05-19T20:04:53.097Z,15.10
2019-05-19T20:07:23.465Z,16.65
2019-05-19T20:09:53.944Z,18.37
2019-05-19T20:12:24.611Z,14.55
2019-05-19T20:14:54.971Z,13.95
2019-05-19T20:17:25.559Z,13.18
2019-05-19T20:19:56.179Z,14.13
2019-05-19T20:22:29.240Z,14.13
2019-05-19T20:24:59.572Z,16.37
2019-05-19T20:27:29.922Z,14.58
2019-05-19T20:30:00.236Z,14.00
2019-05-19T20:32:31.967Z,12.90
2019-05-19T20:35:02.369Z,12.65
2019-05-19T20:37:32.764Z,12.93
2019-05-19T20:40:03.440Z,12.95
2019-05-19T20:42:34.289Z,12.10
2019-05-19T20:45:05.217Z,12.55
2019-05-19T20:47:36.697Z,12.47
2019-05-19T20:50:08.168Z,11.90
2019-05-19T20:52:40.820Z,11.97
2019-05-19T20:55:11.355Z,11.88
2019-05-19T20:57:41.721Z,11.40
2019-05-19T21:00:12.631Z,11.50
2019-05-19T21:02:43.080Z,12.10
2019-05-19T21:05:13.416Z,11.38
2019-05-19T21:07:46.207Z,10.98
2019-05-19T21:10:16.538Z,10.53
2019-05-19T21:12:46.956Z,10.70
2019-05-19T21:15:18.021Z,10.50
2019-05-19T21:17:51.194Z,9.73
2019-05-19T21:20:22.561Z,8.98
2019-05-19T21:22:52.951Z,8.83
2019-05-19T21:25:23.491Z,8.58
2019-05-19T21:27:53.748Z,8.73
2019-05-19T21:30:24.843Z,9.08
2019-05-19T21:32:55.653Z,8.73
2019-05-19T21:35:26.412Z,8.60
2019-05-19T21:37:56.735Z,8.58
2019-05-19T21:40:27.368Z,8.58
2019-05-19T21:42:59.306Z,8.48
2019-05-19T21:45:29.905Z,8.55
2019-05-19T21:48:01.942Z,9.80
2019-05-19T21:50:32.514Z,9.38
2019-05-19T21:53:06.367Z,8.70
2019-05-19T21:55:35.662Z,9.05
2019-05-19T21:58:06.450Z,9.05
2019-05-19T22:00:37.613Z,9.25
2019-05-19T22:03:10.299Z,9.35
2019-05-19T22:05:52.963Z,8.95
2019-05-19T22:08:14.968Z,9.33
2019-05-19T22:10:47.164Z,9.53
2019-05-19T22:13:19.337Z,8.78
2019-05-19T22:15:50.801Z,8.40
2019-05-19T22:18:21.120Z,8.80
2019-05-19T22:20:51.495Z,9.23
2019-05-19T22:23:22.767Z,9.85
2019-05-19T22:25:54.542Z,8.95
2019-05-19T22:28:24.878Z,9.60
2019-05-19T22:30:56.251Z,9.38
2019-05-19T22:33:26.626Z,8.45
2019-05-19T22:35:56.947Z,9.53
2019-05-19T22:38:27.692Z,9.05
2019-05-19T22:40:58.626Z,9.35
2019-05-19T22:43:29.161Z,9.03
2019-05-19T22:45:59.738Z,10.53
2019-05-19T22:48:30.854Z,9.65
2019-05-19T22:51:02.634Z,10.18
2019-05-19T22:53:34.380Z,10.32
2019-05-19T22:56:05.808Z,9.63
2019-05-19T22:58:36.073Z,10.40
2019-05-19T23:01:08.421Z,9.65
2019-05-19T23:03:39.249Z,11.08
2019-05-19T23:06:09.550Z,11.03
2019-05-19T23:08:40.116Z,11.48
2019-05-19T23:11:10.893Z,10.68
2019-05-19T23:13:41.718Z,10.28
2019-05-19T23:16:12.201Z,10.08
2019-05-19T23:18:42.487Z,10.10
2019-05-19T23:21:12.812Z,9.53
2019-05-19T23:23:45.272Z,10.53
2019-05-19T23:26:15.733Z,10.25
2019-05-19T23:28:46.159Z,10.23
2019-05-19T23:31:16.588Z,10.70
2019-05-19T23:33:48.444Z,10.35
2019-05-19T23:36:18.766Z,10.50
2019-05-19T23:38:50.026Z,10.10
2019-05-19T23:41:20.539Z,10.00
2019-05-19T23:43:52.006Z,11.15
2019-05-19T23:46:23.389Z,10.93
2019-05-19T23:48:54.576Z,11.25
2019-05-19T23:51:26.134Z,12.85
2019-05-19T23:53:58.674Z,11.90
2019-05-19T23:56:29.039Z,12.70
2019-05-19T23:59:00.685Z,11.68
